Terminal Aerodrome Forecast
Issued by NWS Jacksonville, FL

Home | Current Version | Previous Version | Text Only | Print | Product List | Glossary On
Versions: 1 2 3 4 5 6 7 8 9 10 11 12 13 14
000
FTUS42 KJAX 220520
TAFJAX
TAF
KJAX 220520Z 2206/2306 07003KT P6SM FEW035 SCT150 BKN250
     FM221300 06006KT P6SM SCT020 BKN200
     FM221600 06010KT P6SM BKN030 BKN070
     FM222000 07013G19KT P6SM BKN045=

USA.gov is the U.S. government's official web portal to all federal, state and local government web resources and services.